Aérodrome :
LOGIN :

S'inscrire | Disclaimer

   EN    FR    IT 

 










Légende :    VFR   VFR Marginal   IFR   IFR Intensif   IFR Très Intensif
Visi : 
Plafond : 
>= 8 km
>= 3000ft
5 à 8 km
1000 à 3000 ft
1500m à 5 km
500 à 1000 ft
800 à 1500m
200 à 500 ft
< 800m
< 200 ft
Symboles :   Orages  Brouillard  Fortes neiges  Fortes précipitations  Vent > 20 kt
SIGMETs :   Divers  Orages  Givrage  Turbulence  Onde Orograph.  Cendres Volcan.







- Altitude de l'aérodrome : 97 ft
- Code IATA : EBJ


EKEB - Esbjerg

DERNIER METAR :
  • 231520Z AUTO 30023KT 9999NDV BKN020/// 12/09 Q1008

METARs EXPIRÉS :
  • 231450Z AUTO 30023KT 9999NDV SCT018/// SCT047/// BKN083/// 12/09 Q1007
  • 231420Z AUTO 30025G36KT 9999NDV SCT018/// BKN075/// 12/09 Q1008
  • 231350Z AUTO 30024KT 9999NDV FEW017/// BKN062/// 12/09 Q1007
  • 231320Z AUTO 30024KT 9999NDV SCT014/// BKN059/// 12/10 Q1008
  • 231250Z AUTO 30026G39KT 9000NDV -SHRA BKN015/// 12/10 Q1007

TAF TAF EKEB
Valide du 23 à 15h jusqu'au 23 à 22h UTC


231422Z 2315/2322 29025G37KT 9999 BKN018
TEMPO 2315/2322 SCT020TCU
BECMG 2320/2322 32015G25KT
Pas de NOTAMs connus pour ce terrain.



MET'MAP, la Météo Aéronautique d'un coup d'oeil ! - Copyright ORBIFLY Décembre 2007 - Disclaimer

ORBIFLY MET'MAP TEAM :

Programmation & Développement : Alexandra Zaïnal
Conception & Développement : Baudouin d'Aumeries
Co-Programmation & Développement : Marc-Olivier Méhu
Soutien technique & logistique : Manuel Goepfert

Contact : metmap@orbifly.com




SOURCES & CREDITS :

   NOAA